Nearby METAR Reports

 

KSJC - San Jose, California, USA
Distance from station: NE 9mi, 14km
Updated: Mon, Nov-19-2018 2:53am CST
Haze, Clear
Haze, Clear
 Wind from SE
Wind: SE 3 mph , 6 km/h
Temperature: 46°F , 8°C
Dew Point: 39°F , 4°C
Humidity: 76%
Barometer: 30.05 inHg , 1017.6 hPa
Summary: Haze
Clouds: Clear
Visibility: 3 miles , 5 km
2018/11/19 08:53 KSJC 190853Z AUTO 13003KT 3SM HZ CLR 08/04 A3005 RMK AO2 SLP175 T00780044 58008 $
KNUQ - Moffett Nas/Mtn, California, USA
Distance from station: N 9mi, 14km
Updated: Mon, Nov-19-2018 2:56am CST
Smoke, Clear
Smoke, Clear
 Wind from calm
Wind: Calm
Temperature: 45°F , 7°C
Dew Point: 41°F , 5°C
Humidity: 87%
Barometer: 30.05 inHg , 1017.6 hPa
Summary: Smoke
Clouds: Clear
Visibility: 4 miles , 6 km
2018/11/19 08:56 KNUQ 190856Z 00000KT 4SM FU CLR 07/05 A3005 RMK AO2 SLP179 T00720050 58007
 
KPAO - Palo Alto, California, USA
Distance from station: NNW 14mi, 23km
Updated: Sun, Nov-18-2018 10:47pm CST
NOT Current
Smoke, Haze, Mostly cloudy
Smoke, Haze, Mostly cloudy
 Wind from calm
Wind: Calm
Temperature: 46°F , 8°C
Dew Point: 45°F , 7°C
Humidity: 93%
Barometer: 30.08 inHg , 1018.6 hPa
Summary: Smoke, Haze
Clouds: Mostly cloudy
Visibility: 2 1/2 miles , 4 km
Cloud details: Mostly cloudy 20000 ft
2018/11/19 04:47 KPAO 190447Z 00000KT 2 1/2SM FU HZ BKN200 08/07 A3008 RMK LAST
KRHV - San Jose/Reid, California, USA
Distance from station: ENE 12mi, 19km
Updated: Sun, Nov-18-2018 11:50pm CST
NOT Current
Smoke, Clear
Smoke, Clear
 Wind from calm
Wind: Calm
Temperature: 48°F , 9°C
Dew Point: 45°F , 7°C
Humidity: 87%
Barometer: 30.05 inHg , 1017.6 hPa
Summary: Smoke
Clouds: Clear
Visibility: 3 miles , 5 km
2018/11/19 05:50 KRHV 190550Z 00000KT 3SM FU SKC 09/07 A3005 RMK LAST
 
KOAK - Oakland, California, USA
Distance from station: NNW 31mi, 50km
Updated: Mon, Nov-19-2018 2:53am CST
Haze, Smoke, Mostly cloudy
Haze, Smoke, Mostly cloudy
 Wind from NE
Wind: NE 3 mph , 6 km/h
Temperature: 45°F , 7°C
Dew Point: 39°F , 4°C
Humidity: 81%
Barometer: 30.06 inHg , 1017.9 hPa
Summary: Haze, Smoke
Clouds: Mostly cloudy
Visibility: 3 miles , 5 km
Cloud details: Mostly cloudy 1500 ft
2018/11/19 08:53 KOAK 190853Z 05003KT 3SM HZ FU BKN015 07/04 A3006 RMK AO2 SLP177 FU BKN015 T00670039 58005
KSQL - San Carlos Airpo, California, USA
Distance from station: NW 21mi, 34km
Updated: Mon, Nov-19-2018 3:15am CST
Mist, Overcast
Mist, Overcast
 Wind from calm
Wind: Calm
Temperature: 46°F , 8°C
Dew Point: 43°F , 6°C
Humidity: 87%
Barometer: 30.05 inHg , 1017.6 hPa
Summary: Mist
Clouds: Overcast
Visibility: 3 miles , 5 km
Cloud details: Overcast 2100 ft
2018/11/19 09:15 KSQL 190915Z AUTO 00000KT 3SM BR OVC021 08/06 A3005 RMK AO2
 
KSFO - San Francisco, California, USA
Distance from station: NW 30mi, 49km
Updated: Mon, Nov-19-2018 2:56am CST
Haze, Smoke, Mostly cloudy
Haze, Smoke, Mostly cloudy
 Wind from S
Wind: S 3 mph , 6 km/h
Temperature: 50°F , 10°C
Dew Point: 45°F , 7°C
Humidity: 82%
Barometer: 30.04 inHg , 1017.3 hPa
Summary: Haze, Smoke
Clouds: Mostly cloudy
Visibility: 2 miles , 3 km
Cloud details: Few Clouds 800 ft
Mostly cloudy 1600 ft
2018/11/19 08:56 KSFO 190856Z 19003KT 2SM HZ FU FEW008 BKN016 10/07 A3004 RMK AO2 SLP173 FU FEW008 FU BKN016 T01000067 58005 $
KE16 - San Martin, California, USA
Distance from station: ESE 27mi, 43km
Updated: Mon, Nov-19-2018 2:50am CST
Mist, Few clouds
Mist, Few clouds
 Wind from calm
Wind: Calm
Temperature: 39°F , 4°C
Dew Point: 36°F , 2°C
Humidity: 87%
Barometer: 30.08 inHg , 1018.6 hPa
Summary: Mist
Clouds: Few Clouds
Visibility: 3 miles , 5 km
Cloud details: Few Clouds 1800 ft
2018/11/19 08:50 KE16 190850Z AUTO 00000KT 3SM BR FEW018 04/02 A3008 RMK AO2
 
KWVI - Watsonville, California, USA
Distance from station: SSE 27mi, 44km
Updated: Mon, Nov-19-2018 2:53am CST
Clear
Clear
 Wind from NW
Wind: NW 7 mph , 11 km/h
Temperature: 45°F , 7°C
Wind Chill: 41°F , 5°C
Dew Point: 43°F , 6°C
Humidity: 93%
Barometer: 30.05 inHg , 1017.6 hPa
Clouds: Clear
Visibility: 7 miles , 11 km
2018/11/19 08:53 KWVI 190853Z AUTO 32006KT 7SM CLR 07/06 A3005 RMK AO2 SLP175 T00670056 58007
KHAF - Half Moon Bay, California, USA
Distance from station: WNW 31mi, 50km
Updated: Mon, Nov-19-2018 3:15am CST
Mist, Partly cloudy
Mist, Partly cloudy
 Wind from calm
Wind: Calm
Temperature: 41°F , 5°C
Dew Point: 39°F , 4°C
Humidity: 93%
Barometer: 30.04 inHg , 1017.3 hPa
Summary: Mist
Clouds: Partly cloudy
Visibility: 3 miles , 5 km
Cloud details: Partly cloudy 1700 ft
2018/11/19 09:15 KHAF 190915Z AUTO 00000KT 3SM BR SCT017 05/04 A3004 RMK AO2
 
KHWD - Hayward, California, USA
Distance from station: N 28mi, 44km
Updated: Mon, Nov-19-2018 2:54am CST
Haze, Smoke, Clear
Haze, Smoke, Clear
 Wind from calm
Wind: Calm
Temperature: 46°F , 8°C
Dew Point: 36°F , 2°C
Humidity: 66%
Barometer: 30.05 inHg , 1017.6 hPa
Summary: Haze, Smoke
Clouds: Clear
Visibility: 2 1/2 miles , 4 km
2018/11/19 08:54 KHWD 190854Z AUTO 00000KT 2 1/2SM HZ FU CLR 08/02 A3005 RMK AO2 SLP184 T00830022 58007
KLVK - Livermore, California, USA
Distance from station: NNE 31mi, 51km
Updated: Mon, Nov-19-2018 2:53am CST
Haze, Smoke, Clear
Haze, Smoke, Clear
 Wind from calm
Wind: Calm
Temperature: 39°F , 4°C
Dew Point: 30°F , -1°C
Humidity: 70%
Barometer: 30.06 inHg , 1017.9 hPa
Summary: Haze, Smoke
Clouds: Clear
Visibility: 2 1/2 miles , 4 km
2018/11/19 08:53 KLVK 190853Z AUTO 00000KT 2 1/2SM HZ FU CLR 04/M01 A3006 RMK AO2 SLP178 T00391011 58004